createdAt,value
2018-12-13T00:02:07.832Z,5.60
2018-12-13T00:04:35.338Z,4.77
2018-12-13T00:07:02.854Z,5.50
2018-12-13T00:09:30.294Z,5.53
2018-12-13T00:11:57.764Z,4.90
2018-12-13T00:14:25.213Z,7.53
2018-12-13T00:16:52.687Z,5.00
2018-12-13T00:19:20.187Z,4.80
2018-12-13T00:21:47.682Z,4.90
2018-12-13T00:24:15.164Z,4.40
2018-12-13T00:26:42.630Z,3.50
2018-12-13T00:29:10.087Z,6.27
2018-12-13T00:31:37.551Z,4.03
2018-12-13T00:34:05.023Z,5.97
2018-12-13T00:36:32.495Z,3.63
2018-12-13T00:38:59.959Z,5.57
2018-12-13T00:41:27.409Z,8.30
2018-12-13T00:43:54.879Z,10.77
2018-12-13T00:46:22.335Z,5.70
2018-12-13T00:48:49.791Z,5.30
2018-12-13T00:51:17.262Z,5.37
2018-12-13T00:53:44.717Z,6.03
2018-12-13T00:56:12.213Z,5.00
2018-12-13T00:58:39.676Z,4.80
2018-12-13T01:01:07.199Z,6.87
2018-12-13T01:03:34.662Z,6.17
2018-12-13T01:06:02.159Z,4.50
2018-12-13T01:08:29.702Z,3.87
2018-12-13T01:10:57.179Z,3.97
2018-12-13T01:13:24.650Z,3.53
2018-12-13T01:15:52.168Z,3.53
2018-12-13T01:18:19.630Z,8.50
2018-12-13T01:20:47.125Z,4.03
2018-12-13T01:23:14.587Z,4.00
2018-12-13T01:25:42.030Z,4.53
2018-12-13T01:28:09.498Z,4.27
2018-12-13T01:30:36.963Z,4.10
2018-12-13T01:33:04.430Z,6.67
2018-12-13T01:35:31.882Z,3.20
2018-12-13T01:37:59.326Z,3.07
2018-12-13T01:40:26.801Z,4.80
2018-12-13T01:42:54.243Z,4.37
2018-12-13T01:45:21.719Z,7.80
2018-12-13T01:47:49.216Z,2.60
2018-12-13T01:50:16.665Z,3.43
2018-12-13T01:52:44.143Z,4.00
2018-12-13T01:55:11.652Z,3.23
2018-12-13T01:57:39.200Z,3.90
2018-12-13T02:00:06.689Z,4.57
2018-12-13T02:02:34.198Z,3.83
2018-12-13T02:05:01.684Z,3.23
2018-12-13T02:07:29.145Z,3.50
2018-12-13T02:09:56.624Z,2.40
2018-12-13T02:12:24.078Z,3.23
2018-12-13T02:14:51.535Z,2.70
2018-12-13T02:17:19.054Z,3.33
2018-12-13T02:19:46.592Z,3.47
2018-12-13T02:22:14.054Z,4.43
2018-12-13T02:24:41.525Z,3.80
2018-12-13T02:27:09.604Z,4.63
2018-12-13T02:29:37.043Z,3.20
2018-12-13T02:32:04.501Z,5.23
2018-12-13T02:34:31.963Z,3.97
2018-12-13T02:37:05.752Z,4.40
2018-12-13T02:39:28.868Z,3.23
2018-12-13T02:41:56.336Z,4.40
2018-12-13T02:44:23.788Z,5.77
2018-12-13T02:46:51.284Z,3.60
2018-12-13T02:49:19.394Z,5.33
2018-12-13T02:51:46.851Z,4.03
2018-12-13T02:54:14.335Z,4.23
2018-12-13T02:56:41.788Z,5.20
2018-12-13T02:59:09.293Z,4.50
2018-12-13T03:01:36.777Z,4.23
2018-12-13T03:04:04.261Z,5.00
2018-12-13T03:06:31.746Z,5.33
2018-12-13T03:08:59.239Z,7.10
2018-12-13T03:11:26.709Z,5.00
2018-12-13T03:13:54.199Z,4.63
2018-12-13T03:16:21.728Z,6.20
2018-12-13T03:18:49.306Z,5.20
2018-12-13T03:21:16.770Z,7.93
2018-12-13T03:23:44.238Z,7.57
2018-12-13T03:26:11.734Z,5.97
2018-12-13T03:28:39.192Z,5.40
2018-12-13T03:31:06.657Z,5.97
2018-12-13T03:33:34.137Z,5.07
2018-12-13T03:36:01.617Z,6.50
2018-12-13T03:38:29.070Z,8.80
2018-12-13T03:40:56.566Z,6.00
2018-12-13T03:43:24.069Z,7.70
2018-12-13T03:45:51.516Z,12.83
2018-12-13T03:48:19.007Z,10.80
2018-12-13T03:50:46.562Z,9.23
2018-12-13T03:53:14.073Z,8.20
2018-12-13T03:55:41.581Z,11.30
2018-12-13T03:58:09.119Z,8.63
2018-12-13T04:03:29.142Z,10.90
2018-12-13T04:05:56.601Z,8.13
2018-12-13T04:08:24.125Z,6.50
2018-12-13T04:10:51.618Z,11.13
2018-12-13T04:13:19.119Z,10.43
2018-12-13T04:15:46.599Z,10.43
2018-12-13T04:18:14.094Z,11.40
2018-12-13T04:20:41.547Z,9.90
2018-12-13T04:23:08.997Z,10.10
2018-12-13T04:25:36.485Z,7.80
2018-12-13T04:28:04.106Z,9.90
2018-12-13T04:30:31.627Z,7.40
2018-12-13T04:32:59.113Z,8.83
2018-12-13T04:35:26.577Z,12.20
2018-12-13T04:37:54.059Z,10.63
2018-12-13T04:40:21.529Z,10.60
2018-12-13T04:42:48.975Z,11.00
2018-12-13T04:45:16.456Z,7.57
2018-12-13T04:47:43.917Z,14.57
2018-12-13T04:50:11.381Z,10.50
2018-12-13T04:52:38.900Z,10.07
2018-12-13T04:55:06.367Z,9.53
2018-12-13T04:57:34.611Z,12.40
2018-12-13T05:00:02.166Z,10.60
2018-12-13T05:02:29.644Z,13.43
2018-12-13T05:04:57.110Z,11.23
2018-12-13T05:07:24.590Z,10.03
2018-12-13T05:09:52.030Z,11.40
2018-12-13T05:12:19.513Z,9.40
2018-12-13T05:14:46.988Z,9.67
2018-12-13T05:17:15.374Z,10.60
2018-12-13T05:19:42.843Z,10.23
2018-12-13T05:22:10.342Z,13.13
2018-12-13T05:24:37.813Z,10.07
2018-12-13T05:27:05.269Z,15.77
2018-12-13T05:29:32.740Z,10.30
2018-12-13T05:32:00.235Z,7.50
2018-12-13T05:34:27.784Z,17.43
2018-12-13T05:36:55.330Z,9.83
2018-12-13T05:39:22.792Z,10.70
2018-12-13T05:41:50.254Z,10.70
2018-12-13T05:44:19.658Z,12.20
2018-12-13T05:46:47.112Z,9.30
2018-12-13T05:49:15.491Z,15.20
2018-12-13T05:51:42.971Z,9.83
2018-12-13T05:54:10.396Z,9.70
2018-12-13T05:56:37.878Z,11.70
2018-12-13T05:59:05.367Z,15.67
2018-12-13T06:01:32.954Z,10.23
2018-12-13T06:04:00.613Z,8.47
2018-12-13T06:06:28.092Z,16.40
2018-12-13T06:08:55.587Z,11.70
2018-12-13T06:11:23.091Z,14.53
2018-12-13T06:13:50.573Z,10.27
2018-12-13T06:16:18.045Z,18.33
2018-12-13T06:18:45.509Z,13.53
2018-12-13T06:21:12.973Z,14.20
2018-12-13T06:23:40.455Z,9.63
2018-12-13T06:26:08.711Z,13.87
2018-12-13T06:28:36.177Z,13.20
2018-12-13T06:31:03.664Z,11.60
2018-12-13T06:33:31.144Z,11.07
2018-12-13T06:35:58.593Z,9.10
2018-12-13T06:38:26.083Z,11.50
2018-12-13T06:40:53.601Z,12.47
2018-12-13T06:43:21.067Z,12.67
2018-12-13T06:45:48.527Z,10.97
2018-12-13T06:48:16.056Z,13.67
2018-12-13T06:50:43.552Z,16.03
2018-12-13T06:53:11.006Z,17.37
2018-12-13T06:55:38.477Z,12.97
2018-12-13T06:58:05.995Z,13.80
2018-12-13T07:00:33.483Z,19.80
2018-12-13T07:03:00.965Z,15.90
2018-12-13T07:05:28.582Z,13.30
2018-12-13T07:07:56.076Z,15.87
2018-12-13T07:10:23.542Z,15.67
2018-12-13T07:12:51.046Z,13.67
2018-12-13T07:15:18.536Z,17.63
2018-12-13T07:17:46.009Z,13.37
2018-12-13T07:20:13.492Z,17.50
2018-12-13T07:22:40.991Z,13.17
2018-12-13T07:25:08.499Z,23.37
2018-12-13T07:27:36.000Z,11.87
2018-12-13T07:30:05.715Z,15.27
2018-12-13T07:32:33.193Z,16.10
2018-12-13T07:35:01.436Z,15.90
2018-12-13T07:37:29.222Z,14.53
2018-12-13T07:39:56.713Z,17.33
2018-12-13T07:42:24.197Z,16.23
2018-12-13T07:44:51.685Z,25.20
2018-12-13T07:47:19.166Z,12.53
2018-12-13T07:49:46.648Z,15.40
2018-12-13T07:52:14.150Z,15.37
2018-12-13T07:54:41.835Z,13.20
2018-12-13T07:57:09.307Z,12.33
2018-12-13T07:59:36.788Z,16.33
2018-12-13T08:02:04.317Z,13.60
2018-12-13T08:04:31.785Z,15.47
2018-12-13T08:06:59.303Z,15.23
2018-12-13T08:09:26.773Z,13.73
2018-12-13T08:11:54.277Z,12.57
2018-12-13T08:14:21.760Z,14.53
2018-12-13T08:16:49.266Z,14.07
2018-12-13T08:19:16.734Z,16.50
2018-12-13T08:21:44.220Z,15.30
2018-12-13T08:24:11.727Z,18.23
2018-12-13T08:26:39.207Z,10.97
2018-12-13T08:29:06.750Z,13.13
2018-12-13T08:31:34.210Z,12.17
2018-12-13T08:34:01.667Z,17.47
2018-12-13T08:36:29.163Z,18.27
2018-12-13T08:38:56.682Z,17.00
2018-12-13T08:41:24.146Z,15.77
2018-12-13T08:43:52.548Z,12.33
2018-12-13T08:46:20.040Z,12.93
2018-12-13T08:48:47.498Z,18.43
2018-12-13T08:51:14.972Z,15.13
2018-12-13T08:53:42.466Z,12.27
2018-12-13T08:56:09.944Z,11.83
2018-12-13T08:58:37.515Z,13.87
2018-12-13T09:01:05.006Z,11.93
2018-12-13T09:03:32.496Z,14.30
2018-12-13T09:05:59.957Z,12.93
2018-12-13T09:08:33.432Z,11.00
2018-12-13T09:10:56.877Z,12.50
2018-12-13T09:13:24.325Z,13.93
2018-12-13T09:15:51.823Z,10.90
2018-12-13T09:18:19.273Z,11.43
2018-12-13T09:20:46.723Z,12.73
2018-12-13T09:23:14.221Z,13.00
2018-12-13T09:25:41.732Z,19.30
2018-12-13T09:28:09.209Z,12.33
2018-12-13T09:30:36.672Z,11.60
2018-12-13T09:33:04.158Z,13.53
2018-12-13T09:35:31.658Z,13.40
2018-12-13T09:37:59.133Z,12.10
2018-12-13T09:40:26.596Z,10.13
2018-12-13T09:42:54.064Z,16.07
2018-12-13T09:45:21.554Z,12.67
2018-12-13T09:47:49.046Z,10.80
2018-12-13T09:50:16.617Z,16.37
2018-12-13T09:52:44.102Z,12.97
2018-12-13T09:55:11.587Z,14.00
2018-12-13T09:57:39.041Z,10.13
2018-12-13T10:00:08.629Z,14.60
2018-12-13T10:02:36.141Z,12.83
2018-12-13T10:05:04.362Z,11.57
2018-12-13T10:07:31.810Z,18.57
2018-12-13T10:09:59.272Z,13.23
2018-12-13T10:12:26.750Z,11.60
2018-12-13T10:14:54.208Z,15.57
2018-12-13T10:17:21.668Z,15.40
2018-12-13T10:19:49.137Z,16.47
2018-12-13T10:22:16.600Z,14.70
2018-12-13T10:24:44.054Z,16.60
2018-12-13T10:27:11.532Z,12.43
2018-12-13T10:29:39.011Z,16.13
2018-12-13T10:32:06.489Z,12.20
2018-12-13T10:34:33.967Z,15.10
2018-12-13T10:37:01.437Z,12.37
2018-12-13T10:39:28.890Z,11.40
2018-12-13T10:41:56.366Z,15.67
2018-12-13T10:44:25.727Z,13.30
2018-12-13T10:46:54.168Z,12.43
2018-12-13T10:49:21.866Z,10.03
2018-12-13T10:51:49.319Z,10.43
2018-12-13T10:54:16.808Z,13.23
2018-12-13T10:56:44.513Z,19.03
2018-12-13T10:59:12.022Z,9.03
2018-12-13T11:01:40.371Z,10.67
2018-12-13T11:04:08.166Z,13.87
2018-12-13T11:06:35.633Z,9.10
2018-12-13T11:11:46.338Z,10.90
2018-12-13T11:14:13.815Z,14.00
2018-12-13T11:16:41.297Z,16.03
2018-12-13T11:19:08.776Z,10.27
2018-12-13T11:21:36.264Z,9.97
2018-12-13T11:24:03.726Z,9.70
2018-12-13T11:26:31.204Z,10.83
2018-12-13T11:29:10.485Z,10.87
2018-12-13T11:31:37.999Z,11.53
2018-12-13T11:34:05.508Z,12.67
2018-12-13T11:36:33.018Z,11.70
2018-12-13T11:39:05.773Z,13.33
2018-12-13T11:41:29.949Z,12.67
2018-12-13T11:43:57.437Z,12.53
2018-12-13T11:46:24.902Z,11.97
2018-12-13T11:48:52.385Z,13.93
2018-12-13T11:51:19.951Z,11.33
2018-12-13T11:53:47.494Z,10.80
2018-12-13T11:56:15.025Z,11.93
2018-12-13T11:58:42.512Z,8.40
2018-12-13T12:01:09.999Z,11.30
2018-12-13T12:03:39.370Z,10.00
2018-12-13T12:06:06.858Z,9.47
2018-12-13T12:08:34.350Z,9.40
2018-12-13T12:11:01.829Z,10.10
2018-12-13T12:13:29.322Z,12.90
2018-12-13T12:15:56.794Z,13.53
2018-12-13T12:18:24.285Z,11.93
2018-12-13T12:20:51.766Z,13.87
2018-12-13T12:23:19.236Z,12.80
2018-12-13T12:25:46.774Z,22.33
2018-12-13T12:28:14.242Z,13.50
2018-12-13T12:30:42.048Z,13.50
2018-12-13T12:33:09.500Z,17.67
2018-12-13T12:35:36.989Z,12.87
2018-12-13T12:38:04.481Z,11.47
2018-12-13T12:40:31.970Z,13.43
2018-12-13T12:42:59.456Z,12.90
2018-12-13T12:45:26.943Z,18.00
2018-12-13T12:47:54.440Z,15.63
2018-12-13T12:50:21.931Z,13.30
2018-12-13T12:52:49.408Z,13.80
2018-12-13T12:55:16.869Z,20.43
2018-12-13T12:57:44.350Z,13.60
2018-12-13T13:00:11.850Z,10.37
2018-12-13T13:02:39.368Z,11.60
2018-12-13T13:05:06.874Z,9.83
2018-12-13T13:07:34.347Z,11.07
2018-12-13T13:10:01.831Z,17.67
2018-12-13T13:12:29.785Z,13.10
2018-12-13T13:14:57.252Z,14.67
2018-12-13T13:17:24.738Z,11.13
2018-12-13T13:19:52.191Z,12.43
2018-12-13T13:22:19.656Z,15.60
2018-12-13T13:24:47.127Z,11.30
2018-12-13T13:27:15.517Z,10.57
2018-12-13T13:29:42.994Z,10.60
2018-12-13T13:32:10.466Z,13.43
2018-12-13T13:34:37.974Z,12.10
2018-12-13T13:37:05.470Z,15.17
2018-12-13T13:39:32.950Z,14.60
2018-12-13T13:42:00.431Z,16.40
2018-12-13T13:44:29.865Z,13.10
2018-12-13T13:46:57.344Z,15.90
2018-12-13T13:49:24.850Z,15.80
2018-12-13T13:51:52.306Z,15.43
2018-12-13T13:54:19.778Z,16.57
2018-12-13T13:56:47.263Z,13.87
2018-12-13T13:59:15.884Z,16.93
2018-12-13T14:01:43.378Z,13.63
2018-12-13T14:04:15.671Z,14.40
2018-12-13T14:06:43.501Z,15.57
2018-12-13T14:09:10.949Z,12.70
2018-12-13T14:11:38.744Z,16.20
2018-12-13T14:14:06.197Z,14.03
2018-12-13T14:16:33.654Z,12.70
2018-12-13T14:19:01.122Z,15.13
2018-12-13T14:21:28.571Z,18.20
2018-12-13T14:23:56.043Z,15.20
2018-12-13T14:26:23.486Z,12.60
2018-12-13T14:28:50.965Z,16.00
2018-12-13T14:31:18.403Z,15.07
2018-12-13T14:33:46.778Z,11.10
2018-12-13T14:36:14.233Z,13.03
2018-12-13T14:38:41.678Z,12.20
2018-12-13T14:41:09.151Z,13.70
2018-12-13T14:43:36.614Z,14.70
2018-12-13T14:46:04.253Z,13.87
2018-12-13T14:48:31.702Z,17.67
2018-12-13T14:50:59.154Z,24.37
2018-12-13T14:53:26.614Z,17.37
2018-12-13T14:55:54.070Z,14.20
2018-12-13T14:58:21.554Z,20.03
2018-12-13T15:00:48.999Z,16.30
2018-12-13T15:03:16.477Z,18.37
2018-12-13T15:05:43.977Z,16.93
2018-12-13T15:08:11.452Z,21.73
2018-12-13T15:10:38.911Z,21.53
2018-12-13T15:13:06.399Z,30.23
2018-12-13T15:15:33.856Z,21.83
2018-12-13T15:18:01.342Z,22.23
2018-12-13T15:20:28.808Z,17.17
2018-12-13T15:22:56.278Z,17.97
2018-12-13T15:25:23.760Z,22.37
2018-12-13T15:27:51.232Z,18.20
2018-12-13T15:30:18.730Z,20.50
2018-12-13T15:32:46.185Z,19.80
2018-12-13T15:35:13.929Z,26.73
2018-12-13T15:37:41.388Z,17.13
2018-12-13T15:40:08.859Z,19.80
2018-12-13T15:42:36.450Z,18.40
2018-12-13T15:45:05.199Z,20.50
2018-12-13T15:47:32.670Z,20.70
2018-12-13T15:50:00.140Z,18.63
2018-12-13T15:52:27.617Z,20.53
2018-12-13T15:54:55.104Z,19.10
2018-12-13T15:57:22.585Z,16.43
2018-12-13T15:59:50.695Z,20.33
2018-12-13T16:02:18.478Z,17.83
2018-12-13T16:04:45.951Z,20.97
2018-12-13T16:07:13.419Z,20.50
2018-12-13T16:09:40.914Z,17.57
2018-12-13T16:12:08.367Z,16.10
2018-12-13T16:14:35.850Z,17.10
2018-12-13T16:17:03.367Z,17.57
2018-12-13T16:19:30.816Z,18.40
2018-12-13T16:21:58.311Z,17.50
2018-12-13T16:24:25.776Z,15.83
2018-12-13T16:26:53.225Z,17.83
2018-12-13T16:29:20.669Z,14.60
2018-12-13T16:31:48.140Z,14.57
2018-12-13T16:34:15.614Z,14.63
2018-12-13T16:36:43.071Z,14.20
2018-12-13T16:39:10.537Z,17.83
2018-12-13T16:41:37.999Z,18.70
2018-12-13T16:44:05.461Z,14.57
2018-12-13T16:46:32.940Z,18.13
2018-12-13T16:49:00.396Z,15.83
2018-12-13T16:51:27.880Z,16.80
2018-12-13T16:53:55.336Z,14.20
2018-12-13T16:56:22.808Z,12.23
2018-12-13T16:58:52.566Z,11.73
2018-12-13T17:01:20.044Z,14.00
2018-12-13T17:03:47.510Z,13.47
2018-12-13T17:06:14.981Z,17.57
2018-12-13T17:08:42.439Z,14.80
2018-12-13T17:11:09.929Z,17.10
2018-12-13T17:13:37.427Z,15.37
2018-12-13T17:16:05.466Z,16.23
2018-12-13T17:18:32.967Z,15.57
2018-12-13T17:21:00.421Z,14.23
2018-12-13T17:23:27.882Z,17.63
2018-12-13T17:25:55.359Z,25.37
2018-12-13T17:28:22.848Z,22.13
2018-12-13T17:30:50.303Z,17.70
2018-12-13T17:33:17.776Z,16.63
2018-12-13T17:35:45.245Z,17.07
2018-12-13T17:38:12.726Z,17.87
2018-12-13T17:40:40.224Z,21.07
2018-12-13T17:43:07.720Z,15.13
2018-12-13T17:45:36.314Z,21.37
2018-12-13T17:48:03.791Z,16.83
2018-12-13T17:50:32.213Z,18.17
2018-12-13T17:52:59.704Z,21.60
2018-12-13T17:55:27.166Z,17.67
2018-12-13T17:57:54.636Z,18.57
2018-12-13T18:00:22.107Z,15.97
2018-12-13T18:02:49.668Z,21.57
2018-12-13T18:05:17.132Z,22.33
2018-12-13T18:07:44.602Z,18.17
2018-12-13T18:10:12.110Z,20.27
2018-12-13T18:12:39.579Z,18.80
2018-12-13T18:15:07.056Z,22.97
2018-12-13T18:17:34.545Z,25.70
2018-12-13T18:20:02.037Z,20.10
2018-12-13T18:22:29.515Z,20.90
2018-12-13T18:24:57.500Z,22.03
2018-12-13T18:27:24.999Z,19.93
2018-12-13T18:29:52.499Z,30.07
2018-12-13T18:32:19.977Z,19.30
2018-12-13T18:34:47.489Z,24.13
2018-12-13T18:37:14.975Z,23.87
2018-12-13T18:39:42.482Z,21.90
2018-12-13T18:44:36.230Z,21.87
2018-12-13T18:47:03.784Z,19.07
2018-12-13T18:49:31.246Z,22.43
2018-12-13T18:51:58.747Z,15.83
2018-12-13T18:54:27.129Z,15.97
2018-12-13T18:56:54.987Z,17.50
2018-12-13T18:59:23.377Z,14.23
2018-12-13T19:01:50.858Z,18.70
2018-12-13T19:04:18.406Z,14.17
2018-12-13T19:06:45.894Z,22.73
2018-12-13T19:09:13.409Z,15.10
2018-12-13T19:11:40.907Z,13.93
2018-12-13T19:14:08.679Z,16.80
2018-12-13T19:16:36.147Z,17.47
2018-12-13T19:19:03.702Z,23.33
2018-12-13T19:21:32.076Z,26.10
2018-12-13T19:23:59.596Z,22.20
2018-12-13T19:26:27.072Z,22.93
2018-12-13T19:28:54.548Z,32.17
2018-12-13T19:31:22.033Z,21.13
2018-12-13T19:33:50.369Z,19.57
2018-12-13T19:36:18.072Z,22.57
2018-12-13T19:38:46.552Z,23.17
2018-12-13T19:41:14.045Z,32.77
2018-12-13T19:43:43.233Z,25.30
2018-12-13T19:46:10.725Z,24.93
2018-12-13T19:48:38.238Z,24.20
2018-12-13T19:51:05.906Z,18.30
2018-12-13T19:53:33.421Z,24.03
2018-12-13T19:56:00.875Z,23.90
2018-12-13T19:58:29.146Z,21.10
2018-12-13T20:00:56.626Z,21.70
2018-12-13T20:03:24.198Z,18.53
2018-12-13T20:05:51.678Z,18.63
2018-12-13T20:08:19.165Z,17.73
2018-12-13T20:10:47.001Z,18.50
2018-12-13T20:13:14.449Z,23.67
2018-12-13T20:15:41.964Z,17.83
2018-12-13T20:18:09.434Z,17.70
2018-12-13T20:20:36.910Z,14.50
2018-12-13T20:23:04.398Z,15.00
2018-12-13T20:25:31.860Z,13.77
2018-12-13T20:27:59.319Z,19.93
2018-12-13T20:30:26.829Z,22.20
2018-12-13T20:32:54.323Z,16.50
2018-12-13T20:35:22.027Z,18.23
2018-12-13T20:37:49.486Z,21.17
2018-12-13T20:40:16.945Z,21.13
2018-12-13T20:42:44.418Z,15.47
2018-12-13T20:45:11.899Z,17.83
2018-12-13T20:47:39.390Z,20.33
2018-12-13T20:50:07.808Z,18.07
2018-12-13T20:52:35.278Z,16.97
2018-12-13T20:55:02.989Z,14.40
2018-12-13T20:57:30.455Z,16.60
2018-12-13T20:59:57.939Z,14.77
2018-12-13T21:02:25.429Z,18.07
2018-12-13T21:04:52.906Z,14.30
2018-12-13T21:07:29.214Z,19.00
2018-12-13T21:09:56.712Z,19.93
2018-12-13T21:12:24.187Z,15.73
2018-12-13T21:14:51.678Z,20.33
2018-12-13T21:17:19.237Z,18.13
2018-12-13T21:19:46.745Z,16.00
2018-12-13T21:22:14.225Z,14.50
2018-12-13T21:24:41.965Z,15.53
2018-12-13T21:27:09.442Z,17.70
2018-12-13T21:29:36.937Z,16.30
2018-12-13T21:32:04.459Z,14.77
2018-12-13T21:34:32.146Z,17.63
2018-12-13T21:36:59.620Z,21.57
2018-12-13T21:39:27.126Z,19.43
2018-12-13T21:41:54.602Z,20.40
2018-12-13T21:44:22.129Z,21.00
2018-12-13T21:46:49.634Z,23.70
2018-12-13T21:49:17.161Z,19.47
2018-12-13T21:51:44.687Z,48.23
2018-12-13T21:54:12.152Z,18.30
2018-12-13T21:56:41.643Z,18.67
2018-12-13T21:59:09.130Z,18.33
2018-12-13T22:01:36.655Z,17.47
2018-12-13T22:04:04.165Z,18.60
2018-12-13T22:06:31.670Z,19.93
2018-12-13T22:08:59.141Z,19.77
2018-12-13T22:11:26.678Z,20.50
2018-12-13T22:13:54.159Z,16.77
2018-12-13T22:16:21.694Z,14.93
2018-12-13T22:18:49.161Z,21.47
2018-12-13T22:21:16.652Z,18.13
2018-12-13T22:23:44.129Z,13.83
2018-12-13T22:26:11.610Z,14.30
2018-12-13T22:28:39.094Z,16.90
2018-12-13T22:31:06.564Z,19.67
2018-12-13T22:33:34.013Z,11.60
2018-12-13T22:36:01.478Z,12.60
2018-12-13T22:38:28.965Z,10.57
2018-12-13T22:40:56.440Z,9.97
2018-12-13T22:43:24.999Z,8.90
2018-12-13T22:45:52.746Z,11.40
2018-12-13T22:48:20.244Z,11.63
2018-12-13T22:50:47.836Z,12.60
2018-12-13T22:53:15.330Z,8.33
2018-12-13T22:55:42.808Z,10.10
2018-12-13T22:58:10.341Z,13.10
2018-12-13T23:00:37.865Z,9.80
2018-12-13T23:03:05.438Z,8.70
2018-12-13T23:05:33.175Z,9.27
2018-12-13T23:08:00.643Z,9.00
2018-12-13T23:10:28.093Z,9.10
2018-12-13T23:12:55.544Z,7.87
2018-12-13T23:15:24.058Z,11.83
2018-12-13T23:17:51.515Z,16.87
2018-12-13T23:20:18.987Z,10.97
2018-12-13T23:22:46.498Z,6.23
2018-12-13T23:25:13.994Z,10.50
2018-12-13T23:27:41.728Z,7.83
2018-12-13T23:30:09.383Z,8.17
2018-12-13T23:32:37.742Z,8.60
2018-12-13T23:35:05.731Z,9.80
2018-12-13T23:37:33.195Z,6.70
2018-12-13T23:40:00.670Z,9.57
2018-12-13T23:42:28.296Z,8.97
2018-12-13T23:44:55.741Z,9.00
2018-12-13T23:47:23.741Z,7.47
2018-12-13T23:49:51.218Z,9.23
2018-12-13T23:52:20.020Z,7.60
2018-12-13T23:54:47.477Z,9.80
2018-12-13T23:57:14.973Z,8.30
2018-12-13T23:59:42.424Z,12.23
